createdAt,value
2022-08-22T00:02:09.020Z,18.39
2022-08-22T00:05:09.013Z,18.33
2022-08-22T00:08:03.133Z,18.31
2022-08-22T00:10:57.888Z,18.33
2022-08-22T00:14:01.289Z,18.38
2022-08-22T00:17:00.329Z,18.42
2022-08-22T00:19:49.016Z,18.44
2022-08-22T00:22:44.846Z,18.47
2022-08-22T00:25:41.914Z,18.49
2022-08-22T00:28:36.560Z,18.48
2022-08-22T00:31:15.403Z,18.49
2022-08-22T00:34:05.457Z,18.54
2022-08-22T00:36:56.539Z,18.59
2022-08-22T00:39:49.771Z,18.63
2022-08-22T00:42:55.393Z,18.67
2022-08-22T00:46:08.079Z,18.69
2022-08-22T00:49:10.598Z,18.70
2022-08-22T00:52:30.270Z,18.75
2022-08-22T00:55:37.719Z,18.75
2022-08-22T00:58:54.063Z,18.74
2022-08-22T01:01:57.158Z,18.77
2022-08-22T01:04:49.851Z,18.78
2022-08-22T01:07:52.099Z,18.76
2022-08-22T01:10:55.520Z,18.76
2022-08-22T01:13:59.673Z,18.75
2022-08-22T01:17:10.934Z,18.73
2022-08-22T01:20:42.060Z,18.70
2022-08-22T01:24:12.601Z,18.65
2022-08-22T01:27:24.724Z,18.60
2022-08-22T01:30:17.975Z,18.57
2022-08-22T01:33:32.673Z,18.54
2022-08-22T01:36:46.641Z,18.49
2022-08-22T01:40:02.683Z,18.44
2022-08-22T01:43:07.193Z,18.37
2022-08-22T01:46:21.497Z,18.34
2022-08-22T01:49:20.513Z,18.31
2022-08-22T01:52:19.552Z,18.28
2022-08-22T01:55:21.275Z,18.26
2022-08-22T01:58:18.554Z,18.25
2022-08-22T02:01:20.083Z,18.26
2022-08-22T02:04:17.166Z,18.28
2022-08-22T02:07:14.693Z,18.32
2022-08-22T02:10:14.715Z,18.37
2022-08-22T02:13:25.422Z,18.44
2022-08-22T02:16:25.679Z,18.51
2022-08-22T02:19:18.318Z,18.58
2022-08-22T02:22:24.320Z,18.64
2022-08-22T02:25:19.095Z,18.69
2022-08-22T02:28:12.797Z,18.74
2022-08-22T02:31:06.850Z,18.79
2022-08-22T02:33:58.869Z,18.82
2022-08-22T02:36:58.229Z,18.86
2022-08-22T02:39:54.095Z,18.89
2022-08-22T02:42:49.493Z,18.93
2022-08-22T02:45:46.618Z,18.97
2022-08-22T02:48:42.116Z,19.01
2022-08-22T02:51:40.956Z,19.08
2022-08-22T02:54:37.104Z,19.11
2022-08-22T02:57:39.371Z,19.10
2022-08-22T03:00:41.203Z,19.06
2022-08-22T03:03:37.248Z,19.03
2022-08-22T03:06:40.219Z,19.04
2022-08-22T03:09:25.146Z,19.05
2022-08-22T03:12:21.506Z,19.07
2022-08-22T03:15:21.427Z,19.08
2022-08-22T03:18:22.476Z,19.08
2022-08-22T03:21:18.442Z,19.08
2022-08-22T03:24:12.490Z,19.09
2022-08-22T03:27:05.761Z,19.09
2022-08-22T03:29:58.640Z,19.10
2022-08-22T03:32:49.196Z,19.12
2022-08-22T03:35:37.789Z,19.14
2022-08-22T03:38:39.850Z,19.17
2022-08-22T03:41:48.951Z,19.16
2022-08-22T03:45:19.185Z,19.17
2022-08-22T03:48:31.816Z,19.17
2022-08-22T03:51:47.419Z,19.20
2022-08-22T03:55:04.952Z,19.22
2022-08-22T03:58:27.905Z,19.23
2022-08-22T04:01:58.057Z,19.26
2022-08-22T04:05:14.655Z,19.29
2022-08-22T04:08:43.785Z,19.31
2022-08-22T04:12:10.275Z,19.36
2022-08-22T04:15:45.102Z,19.40
2022-08-22T04:19:08.005Z,19.41
2022-08-22T04:22:23.239Z,19.42
2022-08-22T04:25:17.255Z,19.43
2022-08-22T04:28:17.276Z,19.45
2022-08-22T04:31:11.350Z,19.49
2022-08-22T04:34:06.574Z,19.51
2022-08-22T04:37:00.025Z,19.52
2022-08-22T04:39:57.285Z,19.53
2022-08-22T04:42:53.328Z,19.57
2022-08-22T04:45:42.037Z,19.60
2022-08-22T04:48:29.196Z,19.68
2022-08-22T04:51:26.419Z,19.78
2022-08-22T04:54:38.865Z,19.84
2022-08-22T04:57:42.584Z,19.96
2022-08-22T05:00:41.462Z,20.17
2022-08-22T05:03:24.722Z,20.54
2022-08-22T05:06:06.192Z,21.12
2022-08-22T05:08:58.902Z,21.68
2022-08-22T05:11:30.475Z,22.00
2022-08-22T05:14:28.759Z,22.17
2022-08-22T05:17:22.960Z,22.06
2022-08-22T05:20:17.860Z,21.89
2022-08-22T05:23:18.685Z,22.01
2022-08-22T05:26:10.549Z,22.54
2022-08-22T05:29:04.056Z,23.10
2022-08-22T05:31:57.557Z,23.50
2022-08-22T05:34:48.272Z,23.68
2022-08-22T05:37:40.276Z,23.58
2022-08-22T05:40:31.423Z,23.37
2022-08-22T05:43:23.103Z,23.14
2022-08-22T05:46:20.228Z,22.95
2022-08-22T05:49:20.584Z,22.72
2022-08-22T05:52:19.519Z,22.57
2022-08-22T05:55:22.699Z,22.52
2022-08-22T05:58:30.113Z,22.46
2022-08-22T06:01:28.952Z,22.35
2022-08-22T06:04:26.192Z,22.30
2022-08-22T06:07:21.572Z,22.30
2022-08-22T06:10:21.243Z,22.30
2022-08-22T06:13:11.474Z,22.32
2022-08-22T06:16:08.440Z,22.35
2022-08-22T06:18:59.189Z,22.35
2022-08-22T06:21:50.789Z,22.32
2022-08-22T06:24:41.827Z,22.29
2022-08-22T06:27:32.125Z,22.29
2022-08-22T06:30:24.173Z,22.31
2022-08-22T06:33:21.615Z,22.34
2022-08-22T06:36:31.146Z,22.40
2022-08-22T06:39:23.433Z,22.48
2022-08-22T06:42:17.215Z,22.59
2022-08-22T06:45:10.791Z,22.68
2022-08-22T06:48:16.762Z,22.76
2022-08-22T06:51:08.482Z,22.78
2022-08-22T06:54:03.068Z,22.77
2022-08-22T06:56:54.864Z,22.79
2022-08-22T06:59:44.344Z,22.80
2022-08-22T07:02:40.086Z,22.78
2022-08-22T07:05:36.032Z,22.80
2022-08-22T07:08:27.126Z,22.81
2022-08-22T07:11:21.267Z,22.77
2022-08-22T07:14:12.080Z,22.75
2022-08-22T07:17:03.081Z,22.83
2022-08-22T07:19:59.630Z,22.97
2022-08-22T07:22:54.569Z,23.08
2022-08-22T07:25:53.548Z,23.19
2022-08-22T07:28:51.471Z,23.28
2022-08-22T07:31:57.978Z,23.33
2022-08-22T07:35:08.924Z,23.41
2022-08-22T07:38:13.315Z,23.46
2022-08-22T07:41:12.821Z,23.51
2022-08-22T07:44:13.783Z,23.57
2022-08-22T07:47:00.548Z,23.63
2022-08-22T07:49:50.077Z,23.69
2022-08-22T07:52:44.194Z,23.75
2022-08-22T07:55:33.878Z,23.77
2022-08-22T07:58:35.479Z,23.81
2022-08-22T08:01:26.135Z,23.88
2022-08-22T08:04:21.149Z,23.91
2022-08-22T10:38:31.787Z,25.45
2022-08-22T10:41:32.425Z,25.50
2022-08-22T10:44:30.231Z,25.59
2022-08-22T10:47:25.638Z,25.92
2022-08-22T10:50:18.287Z,26.13
2022-08-22T10:53:29.845Z,26.26
2022-08-22T10:56:30.082Z,26.35
2022-08-22T10:59:35.189Z,26.39
2022-08-22T11:02:44.739Z,26.54
2022-08-22T11:05:41.307Z,26.93
2022-08-22T11:09:14.175Z,27.27
2022-08-22T11:12:10.501Z,27.69
2022-08-22T11:15:07.182Z,28.06
2022-08-22T11:18:20.582Z,28.07
2022-08-22T11:21:18.152Z,28.24
2022-08-22T11:24:34.869Z,28.42
2022-08-22T11:27:39.710Z,28.52
2022-08-22T11:30:46.517Z,28.52
2022-08-22T11:33:47.191Z,28.49
2022-08-22T11:36:46.563Z,28.48
2022-08-22T11:39:42.540Z,28.41
2022-08-22T11:42:47.377Z,28.23
2022-08-22T11:45:51.610Z,28.15
2022-08-22T11:48:52.842Z,28.06
2022-08-22T11:51:58.618Z,27.98
2022-08-22T11:55:05.127Z,28.02
2022-08-22T11:57:58.573Z,28.11
2022-08-22T12:00:55.448Z,28.14
2022-08-22T12:03:58.965Z,28.10
2022-08-22T12:07:01.799Z,28.08
2022-08-22T12:09:55.156Z,28.02
2022-08-22T12:13:00.683Z,28.00
2022-08-22T12:16:00.034Z,27.94
2022-08-22T12:18:55.520Z,27.90
2022-08-22T12:22:06.372Z,27.80
2022-08-22T12:25:08.467Z,27.71
2022-08-22T12:28:15.842Z,27.62
2022-08-22T12:31:17.146Z,27.53
2022-08-22T12:34:15.635Z,27.50
2022-08-22T12:37:18.483Z,27.48
2022-08-22T12:40:27.347Z,27.43
2022-08-22T12:43:27.548Z,27.41
2022-08-22T12:46:37.217Z,27.35
2022-08-22T12:49:52.281Z,27.22
2022-08-22T12:53:00.579Z,27.14
2022-08-22T12:56:10.288Z,27.05
2022-08-22T12:59:23.379Z,27.05
2022-08-22T13:02:19.578Z,27.07
2022-08-22T13:05:19.823Z,27.08
2022-08-22T13:08:04.624Z,27.15
2022-08-22T13:11:01.215Z,27.21
2022-08-22T13:13:56.783Z,27.19
2022-08-22T13:16:51.131Z,27.22
2022-08-22T13:19:53.083Z,27.22
2022-08-22T13:22:45.639Z,27.22
2022-08-22T13:26:07.969Z,27.30
2022-08-22T13:29:24.051Z,27.33
2022-08-22T13:32:20.612Z,27.26
2022-08-22T13:35:24.422Z,27.26
2022-08-22T13:38:25.849Z,27.24
2022-08-22T13:41:21.568Z,27.14
2022-08-22T13:44:17.532Z,27.09
2022-08-22T13:47:14.170Z,27.04
2022-08-22T13:50:13.946Z,27.06
2022-08-22T13:53:09.125Z,27.14
2022-08-22T13:56:15.582Z,27.17
2022-08-22T13:59:00.096Z,27.21
2022-08-22T14:01:57.073Z,27.21
2022-08-22T14:04:50.188Z,27.23
2022-08-22T14:11:41.975Z,27.17
2022-08-22T14:14:11.115Z,27.19
2022-08-22T14:16:50.130Z,27.20
2022-08-22T14:19:30.467Z,27.18
2022-08-22T14:22:07.369Z,27.19
2022-08-22T14:24:47.985Z,27.20
2022-08-22T14:27:30.415Z,27.18
2022-08-22T14:30:03.615Z,27.14
2022-08-22T14:32:47.485Z,27.12
2022-08-22T14:35:34.830Z,27.10
2022-08-22T14:38:29.737Z,27.08
2022-08-22T14:41:03.686Z,27.04
2022-08-22T14:43:47.938Z,27.02
2022-08-22T14:46:23.507Z,27.03
2022-08-22T14:49:26.597Z,27.04
2022-08-22T14:52:05.989Z,27.04
2022-08-22T14:54:35.162Z,27.05
2022-08-22T14:57:10.138Z,27.05
2022-08-22T14:59:46.373Z,27.08
2022-08-22T15:02:28.026Z,27.08
2022-08-22T15:05:00.923Z,27.03
2022-08-22T15:07:33.198Z,26.97
2022-08-22T15:10:07.420Z,26.93
2022-08-22T15:12:48.981Z,26.90
2022-08-22T15:15:32.109Z,26.85
2022-08-22T15:18:00.689Z,26.82
2022-08-22T15:20:36.282Z,26.80
2022-08-22T15:23:14.885Z,26.73
2022-08-22T15:25:47.031Z,26.66
2022-08-22T15:28:20.338Z,26.59
2022-08-22T15:31:03.576Z,26.52
2022-08-22T15:33:38.535Z,26.47
2022-08-22T15:36:15.856Z,26.42
2022-08-22T15:38:47.893Z,26.35
2022-08-22T15:41:44.879Z,26.30
2022-08-22T15:44:32.336Z,26.25
2022-08-22T15:47:23.775Z,26.20
2022-08-22T15:49:56.400Z,26.15
2022-08-22T15:52:29.358Z,26.10
2022-08-22T15:55:21.068Z,26.03
2022-08-22T15:57:59.835Z,25.97
2022-08-22T16:00:36.246Z,25.91
2022-08-22T16:03:24.570Z,25.85
2022-08-22T16:05:55.983Z,25.81
2022-08-22T16:08:32.614Z,25.76
2022-08-22T16:11:23.776Z,25.71
2022-08-22T16:14:18.157Z,25.67
2022-08-22T16:16:56.084Z,25.62
2022-08-22T16:19:26.714Z,25.58
2022-08-22T16:22:18.703Z,25.53
2022-08-22T16:25:02.876Z,25.48
2022-08-22T16:27:32.204Z,25.43
2022-08-22T16:30:10.970Z,25.40
2022-08-22T16:32:49.819Z,25.37
2022-08-22T16:35:50.387Z,25.33
2022-08-22T16:38:32.630Z,25.30
2022-08-22T16:41:04.162Z,25.27
2022-08-22T16:43:33.199Z,25.23
2022-08-22T16:46:27.857Z,25.21
2022-08-22T16:49:03.958Z,25.17
2022-08-22T16:51:32.616Z,25.11
2022-08-22T16:54:32.726Z,25.07
2022-08-22T16:57:15.180Z,25.05
2022-08-22T16:59:56.495Z,25.01
2022-08-22T17:02:58.363Z,24.97
2022-08-22T17:05:40.682Z,24.93
2022-08-22T17:08:32.632Z,24.90
2022-08-22T17:11:13.898Z,24.87
2022-08-22T17:14:08.850Z,24.84
2022-08-22T17:16:54.594Z,24.83
2022-08-22T17:19:42.766Z,24.80
2022-08-22T17:22:16.770Z,24.78
2022-08-22T17:24:51.250Z,24.74
2022-08-22T17:27:28.311Z,24.68
2022-08-22T17:30:06.478Z,24.60
2022-08-22T17:32:59.223Z,24.53
2022-08-22T17:35:44.458Z,24.46
2022-08-22T17:38:28.477Z,24.39
2022-08-22T17:41:12.220Z,24.33
2022-08-22T17:43:54.419Z,24.25
2022-08-22T17:46:35.605Z,24.14
2022-08-22T17:49:16.057Z,24.05
2022-08-22T17:51:49.884Z,23.94
2022-08-22T17:54:24.740Z,23.82
2022-08-22T17:57:05.702Z,23.72
2022-08-22T17:59:45.326Z,23.64
2022-08-22T18:02:18.285Z,23.58
2022-08-22T18:04:58.202Z,23.53
2022-08-22T18:07:37.400Z,23.43
2022-08-22T18:10:13.990Z,23.34
2022-08-22T18:12:51.728Z,23.28
2022-08-22T18:15:25.446Z,23.19
2022-08-22T18:18:01.103Z,23.08
2022-08-22T18:20:34.716Z,23.01
2022-08-22T18:23:21.720Z,22.95
2022-08-22T18:26:18.321Z,22.87
2022-08-22T18:28:54.348Z,22.78
2022-08-22T18:31:38.459Z,22.69
2022-08-22T18:34:17.223Z,22.63
2022-08-22T18:36:55.346Z,22.62
2022-08-22T18:39:29.486Z,22.62
2022-08-22T18:42:04.976Z,22.58
2022-08-22T18:44:36.535Z,22.55
2022-08-22T18:47:14.947Z,22.51
2022-08-22T18:49:54.232Z,22.49
2022-08-22T18:52:35.204Z,22.47
2022-08-22T18:55:22.786Z,22.46
2022-08-22T18:58:12.482Z,22.45
2022-08-22T19:00:54.716Z,22.46
2022-08-22T19:03:52.445Z,22.48
2022-08-22T19:06:45.631Z,22.47
2022-08-22T19:09:58.856Z,22.45
2022-08-22T19:12:43.407Z,22.43
2022-08-22T19:15:26.873Z,22.43
2022-08-22T19:18:25.571Z,22.43
2022-08-22T19:21:40.011Z,22.42
2022-08-22T19:24:11.272Z,22.43
2022-08-22T19:26:47.207Z,22.43
2022-08-22T19:29:55.943Z,22.42
2022-08-22T19:32:58.759Z,22.39
2022-08-22T19:35:35.806Z,22.31
2022-08-22T19:38:06.192Z,22.22
2022-08-22T19:40:53.972Z,22.14
2022-08-22T19:43:34.246Z,22.09
2022-08-22T19:46:06.194Z,22.05
2022-08-22T19:48:44.447Z,21.98
2022-08-22T19:51:25.826Z,21.90
2022-08-22T19:54:16.647Z,21.83
2022-08-22T19:57:01.004Z,21.81
2022-08-22T19:59:40.945Z,21.80
2022-08-22T20:02:31.429Z,21.80
2022-08-22T20:05:20.755Z,21.79
2022-08-22T20:08:01.399Z,21.78
2022-08-22T20:10:41.884Z,21.77
2022-08-22T20:13:20.067Z,21.75
2022-08-22T20:16:04.893Z,21.72
2022-08-22T20:19:05.972Z,21.71
2022-08-22T20:21:48.962Z,21.70
2022-08-22T20:24:27.415Z,21.69
2022-08-22T20:27:13.367Z,21.68
2022-08-22T20:29:51.375Z,21.66
2022-08-22T20:32:22.490Z,21.63
2022-08-22T20:34:58.604Z,21.63
2022-08-22T20:38:04.831Z,21.64
2022-08-22T20:40:56.737Z,21.65
2022-08-22T20:43:30.177Z,21.64
2022-08-22T20:46:12.857Z,21.63
2022-08-22T20:48:44.711Z,21.63
2022-08-22T20:51:17.481Z,21.60
2022-08-22T20:53:53.171Z,21.55
2022-08-22T20:56:37.708Z,21.50
2022-08-22T20:59:26.876Z,21.45
2022-08-22T21:01:57.176Z,21.42
2022-08-22T21:04:32.621Z,21.42
2022-08-22T21:07:01.922Z,21.40
2022-08-22T21:09:48.951Z,21.35
2022-08-22T21:12:17.624Z,21.31
2022-08-22T21:14:46.353Z,21.29
2022-08-22T21:17:20.966Z,21.28
2022-08-22T21:19:49.769Z,21.26
2022-08-22T21:22:25.370Z,21.24
2022-08-22T21:24:58.570Z,21.22
2022-08-22T21:27:29.584Z,21.17
2022-08-22T21:30:02.470Z,21.12
2022-08-22T21:32:34.480Z,21.09
2022-08-22T21:35:06.189Z,21.06
2022-08-22T21:37:39.332Z,21.00
2022-08-22T21:40:15.381Z,20.95
2022-08-22T21:42:59.161Z,20.94
2022-08-22T21:45:30.818Z,20.90
2022-08-22T21:48:02.826Z,20.86
2022-08-22T21:50:37.611Z,20.82
2022-08-22T21:53:12.135Z,20.81
2022-08-22T21:55:46.080Z,20.81
2022-08-22T21:58:36.029Z,20.81
2022-08-22T22:01:27.682Z,20.79
2022-08-22T22:03:58.018Z,20.74
2022-08-22T22:06:26.958Z,20.70
2022-08-22T22:08:55.561Z,20.68
2022-08-22T22:11:24.200Z,20.68
2022-08-22T22:13:52.988Z,20.67
2022-08-22T22:16:25.349Z,20.68
2022-08-22T22:18:53.969Z,20.68
2022-08-22T22:21:22.457Z,20.64
2022-08-22T22:23:50.778Z,20.60
2022-08-22T22:26:20.544Z,20.55
2022-08-22T22:28:49.656Z,20.51
2022-08-22T22:31:18.622Z,20.47
2022-08-22T22:33:47.211Z,20.44
2022-08-22T22:36:19.501Z,20.42
2022-08-22T22:38:48.952Z,20.44
2022-08-22T22:41:24.637Z,20.45
2022-08-22T22:43:53.804Z,20.47
2022-08-22T22:46:22.900Z,20.48
2022-08-22T22:48:51.238Z,20.48
2022-08-22T22:51:20.232Z,20.49
2022-08-22T22:53:49.086Z,20.51
2022-08-22T22:56:21.445Z,20.52
2022-08-22T22:58:50.564Z,20.54
2022-08-22T23:01:27.855Z,20.53
2022-08-22T23:04:03.216Z,20.52
2022-08-22T23:06:35.335Z,20.50
2022-08-22T23:09:04.302Z,20.46
2022-08-22T23:11:32.709Z,20.40
2022-08-22T23:14:02.233Z,20.36
2022-08-22T23:16:35.172Z,20.34
2022-08-22T23:19:09.429Z,20.35
2022-08-22T23:21:38.299Z,20.37
2022-08-22T23:24:07.469Z,20.36
2022-08-22T23:26:36.878Z,20.32
2022-08-22T23:29:06.088Z,20.27
2022-08-22T23:31:36.666Z,20.22
2022-08-22T23:34:06.959Z,20.15
2022-08-22T23:36:35.977Z,20.07
2022-08-22T23:39:05.865Z,20.02
2022-08-22T23:41:34.665Z,20.00
2022-08-22T23:44:06.105Z,19.97
2022-08-22T23:46:34.841Z,19.97
2022-08-22T23:49:04.466Z,19.98
2022-08-22T23:51:33.535Z,20.00
2022-08-22T23:54:02.933Z,20.00
2022-08-22T23:56:35.080Z,19.98
2022-08-22T23:59:07.709Z,19.96
